sensor_id;sensor_type;location;lat;lon;timestamp;temperature;humidity
33673;DHT22;20011;51.510;9.942;2023-02-04T00:00:05;7.30;99.90
33673;DHT22;20011;51.510;9.942;2023-02-04T00:02:37;7.10;99.90
33673;DHT22;20011;51.510;9.942;2023-02-04T00:05:04;8.10;99.90
33673;DHT22;20011;51.510;9.942;2023-02-04T00:07:31;7.20;99.90
33673;DHT22;20011;51.510;9.942;2023-02-04T00:09:58;9.00;99.90
33673;DHT22;20011;51.510;9.942;2023-02-04T00:12:25;7.60;99.90
33673;DHT22;20011;51.510;9.942;2023-02-04T00:14:52;7.90;99.90
33673;DHT22;20011;51.510;9.942;2023-02-04T00:17:19;8.90;99.90
33673;DHT22;20011;51.510;9.942;2023-02-04T00:19:45;7.20;99.90
33673;DHT22;20011;51.510;9.942;2023-02-04T00:32:03;7.30;99.90
33673;DHT22;20011;51.510;9.942;2023-02-04T00:34:30;7.50;99.90
33673;DHT22;20011;51.510;9.942;2023-02-04T00:36:57;7.40;99.90
33673;DHT22;20011;51.510;9.942;2023-02-04T00:39:24;7.50;99.90
33673;DHT22;20011;51.510;9.942;2023-02-04T00:41:51;7.40;99.90
33673;DHT22;20011;51.510;9.942;2023-02-04T00:44:18;7.40;99.90
33673;DHT22;20011;51.510;9.942;2023-02-04T00:46:45;7.40;99.90
33673;DHT22;20011;51.510;9.942;2023-02-04T00:49:13;7.80;99.90
33673;DHT22;20011;51.510;9.942;2023-02-04T00:51:40;8.60;99.90
33673;DHT22;20011;51.510;9.942;2023-02-04T00:54:12;7.50;99.90
33673;DHT22;20011;51.510;9.942;2023-02-04T00:59:09;7.50;99.90
33673;DHT22;20011;51.510;9.942;2023-02-04T01:01:36;7.60;99.90
33673;DHT22;20011;51.510;9.942;2023-02-04T01:04:04;7.50;99.90
33673;DHT22;20011;51.510;9.942;2023-02-04T01:06:30;7.30;99.90
33673;DHT22;20011;51.510;9.942;2023-02-04T01:08:57;8.50;99.90
33673;DHT22;20011;51.510;9.942;2023-02-04T01:11:25;8.30;99.90
33673;DHT22;20011;51.510;9.942;2023-02-04T01:13:52;8.00;99.90
33673;DHT22;20011;51.510;9.942;2023-02-04T01:16:19;7.20;99.90
33673;DHT22;20011;51.510;9.942;2023-02-04T01:18:46;8.10;99.90
33673;DHT22;20011;51.510;9.942;2023-02-04T01:23:41;7.10;99.90
33673;DHT22;20011;51.510;9.942;2023-02-04T01:26:08;7.00;99.90
33673;DHT22;20011;51.510;9.942;2023-02-04T01:28:35;7.00;99.90
33673;DHT22;20011;51.510;9.942;2023-02-04T01:31:02;7.00;99.90
33673;DHT22;20011;51.510;9.942;2023-02-04T01:33:29;6.90;99.90
33673;DHT22;20011;51.510;9.942;2023-02-04T01:35:56;6.90;99.90
33673;DHT22;20011;51.510;9.942;2023-02-04T01:38:23;6.80;99.90
33673;DHT22;20011;51.510;9.942;2023-02-04T01:40:51;7.80;99.90
33673;DHT22;20011;51.510;9.942;2023-02-04T01:43:21;6.70;99.90
33673;DHT22;20011;51.510;9.942;2023-02-04T01:45:49;6.90;99.90
33673;DHT22;20011;51.510;9.942;2023-02-04T01:48:18;7.60;99.90
33673;DHT22;20011;51.510;9.942;2023-02-04T01:50:48;6.90;99.90
33673;DHT22;20011;51.510;9.942;2023-02-04T01:53:21;8.20;99.90
33673;DHT22;20011;51.510;9.942;2023-02-04T01:55:49;7.80;99.90
33673;DHT22;20011;51.510;9.942;2023-02-04T01:58:17;7.70;99.90
33673;DHT22;20011;51.510;9.942;2023-02-04T02:00:44;6.60;99.90
33673;DHT22;20011;51.510;9.942;2023-02-04T02:03:11;6.60;99.90
33673;DHT22;20011;51.510;9.942;2023-02-04T02:05:48;6.80;99.90
33673;DHT22;20011;51.510;9.942;2023-02-04T02:08:16;7.40;99.90
33673;DHT22;20011;51.510;9.942;2023-02-04T02:10:45;7.30;99.90
33673;DHT22;20011;51.510;9.942;2023-02-04T02:13:16;8.20;99.90
33673;DHT22;20011;51.510;9.942;2023-02-04T02:15:44;6.60;99.90
33673;DHT22;20011;51.510;9.942;2023-02-04T02:18:12;6.60;99.90
33673;DHT22;20011;51.510;9.942;2023-02-04T02:20:42;8.00;99.90
33673;DHT22;20011;51.510;9.942;2023-02-04T02:25:41;7.80;99.90
33673;DHT22;20011;51.510;9.942;2023-02-04T02:28:14;6.70;99.90
33673;DHT22;20011;51.510;9.942;2023-02-04T02:30:43;7.80;99.90
33673;DHT22;20011;51.510;9.942;2023-02-04T02:33:17;7.10;99.90
33673;DHT22;20011;51.510;9.942;2023-02-04T02:35:45;6.90;99.90
33673;DHT22;20011;51.510;9.942;2023-02-04T02:38:17;6.50;99.90
33673;DHT22;20011;51.510;9.942;2023-02-04T02:40:45;8.50;99.90
33673;DHT22;20011;51.510;9.942;2023-02-04T02:43:20;6.40;99.90
33673;DHT22;20011;51.510;9.942;2023-02-04T02:45:49;7.30;99.90
33673;DHT22;20011;51.510;9.942;2023-02-04T02:50:44;6.50;99.90
33673;DHT22;20011;51.510;9.942;2023-02-04T02:53:12;7.50;99.90
33673;DHT22;20011;51.510;9.942;2023-02-04T02:55:41;7.90;99.90
33673;DHT22;20011;51.510;9.942;2023-02-04T02:58:35;8.70;99.90
33673;DHT22;20011;51.510;9.942;2023-02-04T03:01:04;6.50;99.90
33673;DHT22;20011;51.510;9.942;2023-02-04T03:04:03;6.40;99.90
33673;DHT22;20011;51.510;9.942;2023-02-04T03:06:30;6.40;99.90
33673;DHT22;20011;51.510;9.942;2023-02-04T03:08:57;6.60;99.90
33673;DHT22;20011;51.510;9.942;2023-02-04T03:11:24;6.30;99.90
33673;DHT22;20011;51.510;9.942;2023-02-04T03:13:56;6.90;99.90
33673;DHT22;20011;51.510;9.942;2023-02-04T03:16:23;6.30;99.90
33673;DHT22;20011;51.510;9.942;2023-02-04T03:18:50;6.30;99.90
33673;DHT22;20011;51.510;9.942;2023-02-04T03:21:17;6.40;99.90
33673;DHT22;20011;51.510;9.942;2023-02-04T03:23:44;7.30;99.90
33673;DHT22;20011;51.510;9.942;2023-02-04T03:26:12;6.40;99.90
33673;DHT22;20011;51.510;9.942;2023-02-04T03:28:40;7.30;99.90
33673;DHT22;20011;51.510;9.942;2023-02-04T03:33:35;6.40;99.90
33673;DHT22;20011;51.510;9.942;2023-02-04T03:36:02;7.20;99.90
33673;DHT22;20011;51.510;9.942;2023-02-04T03:38:29;6.40;99.90
33673;DHT22;20011;51.510;9.942;2023-02-04T03:40:56;6.60;99.90
33673;DHT22;20011;51.510;9.942;2023-02-04T03:43:23;6.90;99.90
33673;DHT22;20011;51.510;9.942;2023-02-04T03:45:50;6.80;99.90
33673;DHT22;20011;51.510;9.942;2023-02-04T03:48:17;6.70;99.90
33673;DHT22;20011;51.510;9.942;2023-02-04T03:53:11;6.40;99.90
33673;DHT22;20011;51.510;9.942;2023-02-04T03:55:38;6.60;99.90
33673;DHT22;20011;51.510;9.942;2023-02-04T03:58:05;6.40;99.90
33673;DHT22;20011;51.510;9.942;2023-02-04T04:00:32;6.80;99.90
33673;DHT22;20011;51.510;9.942;2023-02-04T04:02:59;7.70;99.90
33673;DHT22;20011;51.510;9.942;2023-02-04T04:05:26;8.10;99.90
33673;DHT22;20011;51.510;9.942;2023-02-04T04:07:54;6.70;99.90
33673;DHT22;20011;51.510;9.942;2023-02-04T04:10:21;7.10;99.90
33673;DHT22;20011;51.510;9.942;2023-02-04T04:12:48;7.00;99.90
33673;DHT22;20011;51.510;9.942;2023-02-04T04:15:16;5.80;99.90
33673;DHT22;20011;51.510;9.942;2023-02-04T04:17:43;5.80;99.90
33673;DHT22;20011;51.510;9.942;2023-02-04T04:20:10;5.70;99.90
33673;DHT22;20011;51.510;9.942;2023-02-04T04:22:38;5.70;99.90
33673;DHT22;20011;51.510;9.942;2023-02-04T04:25:06;5.80;99.90
33673;DHT22;20011;51.510;9.942;2023-02-04T04:27:33;5.70;99.90
33673;DHT22;20011;51.510;9.942;2023-02-04T04:30:00;6.80;99.90
33673;DHT22;20011;51.510;9.942;2023-02-04T04:32:30;6.90;99.90
33673;DHT22;20011;51.510;9.942;2023-02-04T04:34:57;5.60;99.90
33673;DHT22;20011;51.510;9.942;2023-02-04T04:37:23;6.40;99.90
33673;DHT22;20011;51.510;9.942;2023-02-04T04:39:50;6.30;99.90
33673;DHT22;20011;51.510;9.942;2023-02-04T04:42:17;5.60;99.90
33673;DHT22;20011;51.510;9.942;2023-02-04T04:44:44;7.70;99.90
33673;DHT22;20011;51.510;9.942;2023-02-04T04:47:11;6.80;99.90
33673;DHT22;20011;51.510;9.942;2023-02-04T04:49:38;6.70;99.90
33673;DHT22;20011;51.510;9.942;2023-02-04T04:54:32;5.70;99.90
33673;DHT22;20011;51.510;9.942;2023-02-04T04:56:59;6.00;99.90
33673;DHT22;20011;51.510;9.942;2023-02-04T04:59:26;5.80;99.90
33673;DHT22;20011;51.510;9.942;2023-02-04T05:01:53;5.80;99.90
33673;DHT22;20011;51.510;9.942;2023-02-04T05:04:20;6.40;99.90
33673;DHT22;20011;51.510;9.942;2023-02-04T05:06:47;5.90;99.90
33673;DHT22;20011;51.510;9.942;2023-02-04T05:09:14;7.30;99.90
33673;DHT22;20011;51.510;9.942;2023-02-04T05:11:43;7.50;99.90
33673;DHT22;20011;51.510;9.942;2023-02-04T05:14:09;7.50;99.90
33673;DHT22;20011;51.510;9.942;2023-02-04T05:16:36;7.10;99.90
33673;DHT22;20011;51.510;9.942;2023-02-04T05:19:03;7.20;99.90
33673;DHT22;20011;51.510;9.942;2023-02-04T05:21:30;5.90;99.90
33673;DHT22;20011;51.510;9.942;2023-02-04T05:23:57;6.80;99.90
33673;DHT22;20011;51.510;9.942;2023-02-04T05:26:24;5.90;99.90
33673;DHT22;20011;51.510;9.942;2023-02-04T05:28:57;8.10;99.90
33673;DHT22;20011;51.510;9.942;2023-02-04T05:31:26;7.20;99.90
33673;DHT22;20011;51.510;9.942;2023-02-04T05:33:53;7.50;99.90
33673;DHT22;20011;51.510;9.942;2023-02-04T05:38:48;5.90;99.90
33673;DHT22;20011;51.510;9.942;2023-02-04T05:41:15;7.70;99.90
33673;DHT22;20011;51.510;9.942;2023-02-04T05:43:42;7.50;99.90
33673;DHT22;20011;51.510;9.942;2023-02-04T05:48:36;5.90;99.90
33673;DHT22;20011;51.510;9.942;2023-02-04T05:51:03;5.90;99.90
33673;DHT22;20011;51.510;9.942;2023-02-04T05:53:30;5.90;99.90
33673;DHT22;20011;51.510;9.942;2023-02-04T05:58:24;6.00;99.90
33673;DHT22;20011;51.510;9.942;2023-02-04T06:00:51;6.00;99.90
33673;DHT22;20011;51.510;9.942;2023-02-04T06:03:18;6.30;99.90
33673;DHT22;20011;51.510;9.942;2023-02-04T06:10:42;6.00;99.90
33673;DHT22;20011;51.510;9.942;2023-02-04T06:13:09;6.90;99.90
33673;DHT22;20011;51.510;9.942;2023-02-04T06:15:36;6.50;99.90
33673;DHT22;20011;51.510;9.942;2023-02-04T06:18:03;6.90;99.90
33673;DHT22;20011;51.510;9.942;2023-02-04T06:20:30;6.00;99.90
33673;DHT22;20011;51.510;9.942;2023-02-04T06:22:57;6.60;99.90
33673;DHT22;20011;51.510;9.942;2023-02-04T06:25:24;5.90;99.90
33673;DHT22;20011;51.510;9.942;2023-02-04T06:27:51;6.40;99.90
33673;DHT22;20011;51.510;9.942;2023-02-04T06:30:18;6.90;99.90
33673;DHT22;20011;51.510;9.942;2023-02-04T06:32:45;5.80;99.90
33673;DHT22;20011;51.510;9.942;2023-02-04T06:35:12;6.00;99.90
33673;DHT22;20011;51.510;9.942;2023-02-04T06:37:41;7.80;99.90
33673;DHT22;20011;51.510;9.942;2023-02-04T06:40:08;7.30;99.90
33673;DHT22;20011;51.510;9.942;2023-02-04T06:42:36;5.80;99.90
33673;DHT22;20011;51.510;9.942;2023-02-04T06:45:03;6.50;99.90
33673;DHT22;20011;51.510;9.942;2023-02-04T06:47:30;5.80;99.90
33673;DHT22;20011;51.510;9.942;2023-02-04T06:49:57;5.80;99.90
33673;DHT22;20011;51.510;9.942;2023-02-04T06:52:24;7.10;99.90
33673;DHT22;20011;51.510;9.942;2023-02-04T06:54:51;5.70;99.90
33673;DHT22;20011;51.510;9.942;2023-02-04T06:57:18;6.80;99.90
33673;DHT22;20011;51.510;9.942;2023-02-04T07:02:13;5.60;99.90
33673;DHT22;20011;51.510;9.942;2023-02-04T07:04:41;5.60;99.90
33673;DHT22;20011;51.510;9.942;2023-02-04T07:07:10;5.50;99.90
33673;DHT22;20011;51.510;9.942;2023-02-04T07:09:37;7.50;99.90
33673;DHT22;20011;51.510;9.942;2023-02-04T07:12:06;5.90;99.90
33673;DHT22;20011;51.510;9.942;2023-02-04T07:14:33;5.50;99.90
33673;DHT22;20011;51.510;9.942;2023-02-04T07:17:00;7.00;99.90
33673;DHT22;20011;51.510;9.942;2023-02-04T07:19:27;6.40;99.90
33673;DHT22;20011;51.510;9.942;2023-02-04T07:21:54;5.40;99.90
33673;DHT22;20011;51.510;9.942;2023-02-04T07:24:22;5.40;99.90
33673;DHT22;20011;51.510;9.942;2023-02-04T07:26:50;5.50;99.90
33673;DHT22;20011;51.510;9.942;2023-02-04T07:29:17;6.60;99.90
33673;DHT22;20011;51.510;9.942;2023-02-04T07:36:47;5.50;99.90
33673;DHT22;20011;51.510;9.942;2023-02-04T07:39:14;5.40;99.90
33673;DHT22;20011;51.510;9.942;2023-02-04T07:41:41;5.70;99.90
33673;DHT22;20011;51.510;9.942;2023-02-04T07:44:10;7.00;99.90
33673;DHT22;20011;51.510;9.942;2023-02-04T07:46:37;6.10;99.90
33673;DHT22;20011;51.510;9.942;2023-02-04T07:49:04;6.70;99.90
33673;DHT22;20011;51.510;9.942;2023-02-04T07:51:31;5.40;99.90
33673;DHT22;20011;51.510;9.942;2023-02-04T07:53:58;5.30;99.90
33673;DHT22;20011;51.510;9.942;2023-02-04T07:56:24;5.30;99.90
33673;DHT22;20011;51.510;9.942;2023-02-04T07:58:51;7.00;99.90
33673;DHT22;20011;51.510;9.942;2023-02-04T08:01:18;5.20;99.90
33673;DHT22;20011;51.510;9.942;2023-02-04T08:03:45;7.20;99.90
33673;DHT22;20011;51.510;9.942;2023-02-04T08:08:39;5.10;99.90
33673;DHT22;20011;51.510;9.942;2023-02-04T08:11:06;6.80;99.90
33673;DHT22;20011;51.510;9.942;2023-02-04T08:13:33;7.10;99.90
33673;DHT22;20011;51.510;9.942;2023-02-04T08:16:00;7.10;99.90
33673;DHT22;20011;51.510;9.942;2023-02-04T08:18:27;6.90;99.90
33673;DHT22;20011;51.510;9.942;2023-02-04T08:20:54;5.40;99.90
33673;DHT22;20011;51.510;9.942;2023-02-04T08:23:21;6.00;99.90
33673;DHT22;20011;51.510;9.942;2023-02-04T08:25:48;7.00;99.90
33673;DHT22;20011;51.510;9.942;2023-02-04T08:30:43;5.10;99.90
33673;DHT22;20011;51.510;9.942;2023-02-04T08:33:10;5.20;99.90
33673;DHT22;20011;51.510;9.942;2023-02-04T08:35:37;5.90;99.90
33673;DHT22;20011;51.510;9.942;2023-02-04T08:38:04;5.80;99.90
33673;DHT22;20011;51.510;9.942;2023-02-04T08:40:31;6.60;99.90
33673;DHT22;20011;51.510;9.942;2023-02-04T08:42:58;5.50;99.90
33673;DHT22;20011;51.510;9.942;2023-02-04T08:45:25;5.50;99.90
33673;DHT22;20011;51.510;9.942;2023-02-04T08:47:52;5.50;99.90
33673;DHT22;20011;51.510;9.942;2023-02-04T08:50:19;6.30;99.90
33673;DHT22;20011;51.510;9.942;2023-02-04T08:52:46;7.00;99.90
33673;DHT22;20011;51.510;9.942;2023-02-04T08:55:13;5.50;99.90
33673;DHT22;20011;51.510;9.942;2023-02-04T08:57:41;5.50;99.90
33673;DHT22;20011;51.510;9.942;2023-02-04T09:00:10;5.60;99.90
33673;DHT22;20011;51.510;9.942;2023-02-04T09:02:37;5.60;99.90
33673;DHT22;20011;51.510;9.942;2023-02-04T09:05:05;5.60;99.90
33673;DHT22;20011;51.510;9.942;2023-02-04T09:07:32;5.60;99.90
33673;DHT22;20011;51.510;9.942;2023-02-04T09:09:59;5.60;99.90
33673;DHT22;20011;51.510;9.942;2023-02-04T09:12:26;7.00;99.90
33673;DHT22;20011;51.510;9.942;2023-02-04T09:14:52;5.60;99.90
33673;DHT22;20011;51.510;9.942;2023-02-04T09:17:19;5.80;99.90
33673;DHT22;20011;51.510;9.942;2023-02-04T09:19:46;5.60;99.90
33673;DHT22;20011;51.510;9.942;2023-02-04T09:22:13;8.00;99.90
33673;DHT22;20011;51.510;9.942;2023-02-04T09:24:41;7.00;99.90
33673;DHT22;20011;51.510;9.942;2023-02-04T09:27:08;5.70;99.90
33673;DHT22;20011;51.510;9.942;2023-02-04T09:29:34;7.80;99.90
33673;DHT22;20011;51.510;9.942;2023-02-04T09:32:01;6.70;99.90
33673;DHT22;20011;51.510;9.942;2023-02-04T09:34:28;5.70;99.90
33673;DHT22;20011;51.510;9.942;2023-02-04T09:36:55;5.60;99.90
33673;DHT22;20011;51.510;9.942;2023-02-04T09:39:22;6.60;99.90
33673;DHT22;20011;51.510;9.942;2023-02-04T09:41:50;5.70;99.90
33673;DHT22;20011;51.510;9.942;2023-02-04T09:44:22;6.60;99.90
33673;DHT22;20011;51.510;9.942;2023-02-04T09:46:53;6.20;99.90
33673;DHT22;20011;51.510;9.942;2023-02-04T09:49:20;6.90;99.90
33673;DHT22;20011;51.510;9.942;2023-02-04T09:51:48;5.80;99.90
33673;DHT22;20011;51.510;9.942;2023-02-04T09:54:20;6.60;99.90
33673;DHT22;20011;51.510;9.942;2023-02-04T09:59:21;5.80;99.90
33673;DHT22;20011;51.510;9.942;2023-02-04T10:01:59;7.50;99.90
33673;DHT22;20011;51.510;9.942;2023-02-04T10:04:27;7.20;99.90
33673;DHT22;20011;51.510;9.942;2023-02-04T10:06:55;8.50;99.90
33673;DHT22;20011;51.510;9.942;2023-02-04T10:09:24;6.60;99.90
33673;DHT22;20011;51.510;9.942;2023-02-04T10:11:52;6.10;99.90
33673;DHT22;20011;51.510;9.942;2023-02-04T10:14:20;7.80;99.90
33673;DHT22;20011;51.510;9.942;2023-02-04T10:16:59;6.30;99.90
33673;DHT22;20011;51.510;9.942;2023-02-04T10:19:29;6.60;99.90
33673;DHT22;20011;51.510;9.942;2023-02-04T10:21:56;6.40;99.90
33673;DHT22;20011;51.510;9.942;2023-02-04T10:24:25;6.50;99.90
33673;DHT22;20011;51.510;9.942;2023-02-04T10:27:07;7.50;99.90
33673;DHT22;20011;51.510;9.942;2023-02-04T10:29:34;6.40;99.90
33673;DHT22;20011;51.510;9.942;2023-02-04T10:32:01;6.50;99.90
33673;DHT22;20011;51.510;9.942;2023-02-04T10:34:38;6.40;99.90
33673;DHT22;20011;51.510;9.942;2023-02-04T10:37:18;6.60;99.90
33673;DHT22;20011;51.510;9.942;2023-02-04T10:39:45;6.30;99.90
33673;DHT22;20011;51.510;9.942;2023-02-04T10:42:26;6.50;99.90
33673;DHT22;20011;51.510;9.942;2023-02-04T10:44:53;6.30;99.90
33673;DHT22;20011;51.510;9.942;2023-02-04T10:47:25;7.30;99.90
33673;DHT22;20011;51.510;9.942;2023-02-04T10:50:13;7.70;99.90
33673;DHT22;20011;51.510;9.942;2023-02-04T10:52:43;6.40;99.90
33673;DHT22;20011;51.510;9.942;2023-02-04T10:55:14;7.80;99.90
33673;DHT22;20011;51.510;9.942;2023-02-04T10:57:44;7.50;99.90
33673;DHT22;20011;51.510;9.942;2023-02-04T11:00:19;7.80;99.90
33673;DHT22;20011;51.510;9.942;2023-02-04T11:05:20;6.50;99.90
33673;DHT22;20011;51.510;9.942;2023-02-04T11:07:48;8.20;99.90
33673;DHT22;20011;51.510;9.942;2023-02-04T11:10:21;6.50;99.90
33673;DHT22;20011;51.510;9.942;2023-02-04T11:15:42;8.90;99.90
33673;DHT22;20011;51.510;9.942;2023-02-04T11:20:53;6.70;99.90
33673;DHT22;20011;51.510;9.942;2023-02-04T11:26:16;7.20;99.90
33673;DHT22;20011;51.510;9.942;2023-02-04T11:31:28;6.60;99.90
33673;DHT22;20011;51.510;9.942;2023-02-04T11:37:14;6.50;99.90
33673;DHT22;20011;51.510;9.942;2023-02-04T11:39:44;6.70;99.90
33673;DHT22;20011;51.510;9.942;2023-02-04T11:42:21;9.20;99.90
33673;DHT22;20011;51.510;9.942;2023-02-04T11:44:50;6.80;99.90
33673;DHT22;20011;51.510;9.942;2023-02-04T11:47:18;6.70;99.90
33673;DHT22;20011;51.510;9.942;2023-02-04T11:49:51;6.60;99.90
33673;DHT22;20011;51.510;9.942;2023-02-04T11:52:20;6.80;99.10
33673;DHT22;20011;51.510;9.942;2023-02-04T11:54:59;6.70;99.30
33673;DHT22;20011;51.510;9.942;2023-02-04T11:59:54;6.90;98.90
33673;DHT22;20011;51.510;9.942;2023-02-04T12:02:23;6.90;98.80
33673;DHT22;20011;51.510;9.942;2023-02-04T12:04:57;9.70;99.70
33673;DHT22;20011;51.510;9.942;2023-02-04T12:12:58;6.80;97.50
33673;DHT22;20011;51.510;9.942;2023-02-04T12:15:34;8.40;98.20
33673;DHT22;20011;51.510;9.942;2023-02-04T12:18:07;7.70;97.50
33673;DHT22;20011;51.510;9.942;2023-02-04T12:20:35;8.30;97.80
33673;DHT22;20011;51.510;9.942;2023-02-04T12:23:03;8.40;98.00
33673;DHT22;20011;51.510;9.942;2023-02-04T12:25:30;8.00;97.90
33673;DHT22;20011;51.510;9.942;2023-02-04T12:27:57;6.70;97.60
33673;DHT22;20011;51.510;9.942;2023-02-04T12:30:25;6.70;97.80
33673;DHT22;20011;51.510;9.942;2023-02-04T12:32:52;6.70;97.80
33673;DHT22;20011;51.510;9.942;2023-02-04T12:35:19;6.70;98.00
33673;DHT22;20011;51.510;9.942;2023-02-04T12:40:17;6.80;97.80
33673;DHT22;20011;51.510;9.942;2023-02-04T12:45:14;6.80;97.50
33673;DHT22;20011;51.510;9.942;2023-02-04T12:50:13;6.80;97.70
33673;DHT22;20011;51.510;9.942;2023-02-04T12:52:40;9.50;98.80
33673;DHT22;20011;51.510;9.942;2023-02-04T12:55:07;9.70;99.10
33673;DHT22;20011;51.510;9.942;2023-02-04T13:00:03;6.90;97.60
33673;DHT22;20011;51.510;9.942;2023-02-04T13:02:30;6.80;98.40
33673;DHT22;20011;51.510;9.942;2023-02-04T13:04:57;7.20;98.10
33673;DHT22;20011;51.510;9.942;2023-02-04T13:07:24;6.70;97.50
33673;DHT22;20011;51.510;9.942;2023-02-04T13:09:50;6.80;97.90
33673;DHT22;20011;51.510;9.942;2023-02-04T13:22:08;6.80;96.80
33673;DHT22;20011;51.510;9.942;2023-02-04T13:27:02;6.80;96.40
33673;DHT22;20011;51.510;9.942;2023-02-04T13:29:29;6.80;96.20
33673;DHT22;20011;51.510;9.942;2023-02-04T13:31:56;6.70;95.70
33673;DHT22;20011;51.510;9.942;2023-02-04T13:34:23;6.80;95.60
33673;DHT22;20011;51.510;9.942;2023-02-04T13:39:17;6.80;95.70
33673;DHT22;20011;51.510;9.942;2023-02-04T13:56:28;6.80;95.10
33673;DHT22;20011;51.510;9.942;2023-02-04T13:58:58;9.00;96.10
33673;DHT22;20011;51.510;9.942;2023-02-04T14:01:25;8.90;96.10
33673;DHT22;20011;51.510;9.942;2023-02-04T14:03:52;9.70;96.20
33673;DHT22;20011;51.510;9.942;2023-02-04T14:11:14;6.70;94.50
33673;DHT22;20011;51.510;9.942;2023-02-04T14:16:08;6.70;95.40
33673;DHT22;20011;51.510;9.942;2023-02-04T14:21:03;6.70;95.70
33673;DHT22;20011;51.510;9.942;2023-02-04T14:23:30;6.70;96.00
33673;DHT22;20011;51.510;9.942;2023-02-04T14:25:57;9.10;96.60
33673;DHT22;20011;51.510;9.942;2023-02-04T14:28:24;9.30;96.70
33673;DHT22;20011;51.510;9.942;2023-02-04T14:50:39;6.70;95.30
33673;DHT22;20011;51.510;9.942;2023-02-04T14:53:05;9.50;97.00
33673;DHT22;20011;51.510;9.942;2023-02-04T14:55:32;9.70;96.80
33673;DHT22;20011;51.510;9.942;2023-02-04T14:57:59;8.30;96.50
33673;DHT22;20011;51.510;9.942;2023-02-04T15:00:26;8.50;95.90
33673;DHT22;20011;51.510;9.942;2023-02-04T15:17:37;6.70;95.50
33673;DHT22;20011;51.510;9.942;2023-02-04T15:20:04;9.40;96.80
33673;DHT22;20011;51.510;9.942;2023-02-04T15:24:59;6.70;95.50
33673;DHT22;20011;51.510;9.942;2023-02-04T15:27:26;9.80;96.70
33673;DHT22;20011;51.510;9.942;2023-02-04T15:42:10;6.70;95.90
33673;DHT22;20011;51.510;9.942;2023-02-04T15:44:37;9.20;97.00
33673;DHT22;20011;51.510;9.942;2023-02-04T16:04:17;6.50;96.00
33673;DHT22;20011;51.510;9.942;2023-02-04T16:09:24;6.50;96.00
33673;DHT22;20011;51.510;9.942;2023-02-04T16:16:46;6.40;96.00
33673;DHT22;20011;51.510;9.942;2023-02-04T16:26:35;6.30;95.90
33673;DHT22;20011;51.510;9.942;2023-02-04T16:29:01;6.10;96.20
33673;DHT22;20011;51.510;9.942;2023-02-04T16:31:28;6.30;96.10
33673;DHT22;20011;51.510;9.942;2023-02-04T16:33:55;8.50;96.70
33673;DHT22;20011;51.510;9.942;2023-02-04T16:51:34;6.10;96.40
33673;DHT22;20011;51.510;9.942;2023-02-04T16:59:01;6.00;96.80
33673;DHT22;20011;51.510;9.942;2023-02-04T17:03:59;5.80;96.60
33673;DHT22;20011;51.510;9.942;2023-02-04T17:06:26;5.80;97.10
33673;DHT22;20011;51.510;9.942;2023-02-04T17:08:54;5.70;96.90
33673;DHT22;20011;51.510;9.942;2023-02-04T17:11:21;5.60;97.80
33673;DHT22;20011;51.510;9.942;2023-02-04T17:31:08;5.30;99.90
33673;DHT22;20011;51.510;9.942;2023-02-04T17:41:08;5.10;99.90
33673;DHT22;20011;51.510;9.942;2023-02-04T17:46:56;5.10;99.90
33673;DHT22;20011;51.510;9.942;2023-02-04T17:49:57;5.10;99.90
33673;DHT22;20011;51.510;9.942;2023-02-04T17:55:33;5.10;99.90
33673;DHT22;20011;51.510;9.942;2023-02-04T17:58:23;5.10;99.90
33673;DHT22;20011;51.510;9.942;2023-02-04T18:01:33;5.00;99.90
33673;DHT22;20011;51.510;9.942;2023-02-04T18:04:27;5.00;99.90
33673;DHT22;20011;51.510;9.942;2023-02-04T18:07:08;5.00;99.90
33673;DHT22;20011;51.510;9.942;2023-02-04T18:14:49;4.90;99.90
33673;DHT22;20011;51.510;9.942;2023-02-04T18:17:29;4.70;99.90
33673;DHT22;20011;51.510;9.942;2023-02-04T18:23:15;4.90;99.90
33673;DHT22;20011;51.510;9.942;2023-02-04T18:25:44;4.90;99.90
33673;DHT22;20011;51.510;9.942;2023-02-04T18:28:16;4.80;99.90
33673;DHT22;20011;51.510;9.942;2023-02-04T18:30:52;4.80;99.90
33673;DHT22;20011;51.510;9.942;2023-02-04T18:33:23;4.70;99.90
33673;DHT22;20011;51.510;9.942;2023-02-04T18:35:58;4.70;99.90
33673;DHT22;20011;51.510;9.942;2023-02-04T18:38:32;4.60;99.90
33673;DHT22;20011;51.510;9.942;2023-02-04T18:41:36;7.50;99.90
33673;DHT22;20011;51.510;9.942;2023-02-04T18:44:21;4.50;99.90
33673;DHT22;20011;51.510;9.942;2023-02-04T18:49:29;4.50;99.90
33673;DHT22;20011;51.510;9.942;2023-02-04T18:54:37;4.40;99.90
33673;DHT22;20011;51.510;9.942;2023-02-04T19:13:25;4.20;99.90
33673;DHT22;20011;51.510;9.942;2023-02-04T19:23:22;4.10;99.90
33673;DHT22;20011;51.510;9.942;2023-02-04T19:25:51;4.20;99.90
33673;DHT22;20011;51.510;9.942;2023-02-04T19:28:36;4.10;99.90
33673;DHT22;20011;51.510;9.942;2023-02-04T19:31:06;4.10;99.90
33673;DHT22;20011;51.510;9.942;2023-02-04T19:33:38;6.80;99.90
33673;DHT22;20011;51.510;9.942;2023-02-04T19:36:34;6.30;99.90
33673;DHT22;20011;51.510;9.942;2023-02-04T19:41:55;4.20;99.90
33673;DHT22;20011;51.510;9.942;2023-02-04T19:44:38;3.90;99.90
33673;DHT22;20011;51.510;9.942;2023-02-04T19:50:24;3.90;99.90
33673;DHT22;20011;51.510;9.942;2023-02-04T19:52:59;3.80;99.90
33673;DHT22;20011;51.510;9.942;2023-02-04T19:55:31;3.70;99.90
33673;DHT22;20011;51.510;9.942;2023-02-04T20:03:42;3.90;99.90
33673;DHT22;20011;51.510;9.942;2023-02-04T20:06:33;3.60;99.90
33673;DHT22;20011;51.510;9.942;2023-02-04T20:09:13;3.60;99.90
33673;DHT22;20011;51.510;9.942;2023-02-04T20:11:50;3.50;99.90
33673;DHT22;20011;51.510;9.942;2023-02-04T20:17:33;3.40;99.90
33673;DHT22;20011;51.510;9.942;2023-02-04T20:34:34;3.10;99.90
33673;DHT22;20011;51.510;9.942;2023-02-04T20:39:32;3.10;99.90
33673;DHT22;20011;51.510;9.942;2023-02-04T20:42:24;3.10;99.90
33673;DHT22;20011;51.510;9.942;2023-02-04T20:44:53;3.10;99.90
33673;DHT22;20011;51.510;9.942;2023-02-04T20:47:23;2.90;99.90
33673;DHT22;20011;51.510;9.942;2023-02-04T20:49:57;3.20;99.90
33673;DHT22;20011;51.510;9.942;2023-02-04T20:55:27;2.70;99.90
33673;DHT22;20011;51.510;9.942;2023-02-04T20:58:21;3.30;99.90
33673;DHT22;20011;51.510;9.942;2023-02-04T21:00:51;3.10;99.90
33673;DHT22;20011;51.510;9.942;2023-02-04T21:03:28;2.70;99.90
33673;DHT22;20011;51.510;9.942;2023-02-04T21:05:57;2.50;99.90
33673;DHT22;20011;51.510;9.942;2023-02-04T21:08:42;2.80;99.90
33673;DHT22;20011;51.510;9.942;2023-02-04T21:16:09;3.10;99.90
33673;DHT22;20011;51.510;9.942;2023-02-04T21:21:08;3.00;99.90
33673;DHT22;20011;51.510;9.942;2023-02-04T21:33:35;2.90;99.90
33673;DHT22;20011;51.510;9.942;2023-02-04T21:36:04;5.00;99.90
33673;DHT22;20011;51.510;9.942;2023-02-04T21:43:47;2.80;99.90
33673;DHT22;20011;51.510;9.942;2023-02-04T21:48:43;2.80;99.90
33673;DHT22;20011;51.510;9.942;2023-02-04T21:51:11;2.80;99.90
33673;DHT22;20011;51.510;9.942;2023-02-04T21:53:38;5.10;99.90
33673;DHT22;20011;51.510;9.942;2023-02-04T21:56:06;3.60;99.90
33673;DHT22;20011;51.510;9.942;2023-02-04T22:47:58;2.60;99.90